Time;durP1;ratioP1;P1;durP2;ratioP2;P2;SDS_P1;SDS_P2;PMS_P1;PMS_P2;Temp;Humidity;BMP_temperature;BMP_pressure;BME280_temperature;BME280_humidity;BME280_pressure;Samples;Min_cycle;Max_cycle;Signal;HPM_P1;HPM_P2
2021/09/26 00:00:10;;;;;;;;;;;16.10;97.80;;;;;;5039412;28;19921;-75
2021/09/26 00:02:35;;;;;;;;;;;16.00;97.90;;;;;;5039166;28;19970;-75
2021/09/26 00:05:01;;;;;;;;;;;16.00;97.90;;;;;;5038631;28;19909;-75
2021/09/26 00:07:27;;;;;;;;;;;15.90;97.90;;;;;;5040374;28;19924;-76
2021/09/26 00:09:52;;;;;;;;;;;15.90;98.00;;;;;;5039973;28;19909;-75
2021/09/26 00:12:18;;;;;;;;;;;15.90;98.00;;;;;;5039475;28;19912;-75
2021/09/26 00:14:43;;;;;;;;;;;15.90;98.20;;;;;;5040385;28;19909;-75
2021/09/26 00:17:09;;;;;;;;;;;15.80;98.20;;;;;;5040782;28;20004;-75
2021/09/26 00:19:34;;;;;;;;;;;15.80;98.20;;;;;;5038144;28;19912;-75
2021/09/26 00:22:00;;;;;;;;;;;15.80;98.20;;;;;;5039621;28;19913;-75
2021/09/26 00:24:25;;;;;;;;;;;15.80;98.20;;;;;;5051352;22;20455;-80
2021/09/26 00:26:51;;;;;;;;;;;15.70;98.20;;;;;;5030573;28;19909;-80
2021/09/26 00:29:16;;;;;;;;;;;15.70;98.20;;;;;;5030463;28;20224;-80
2021/09/26 00:31:42;;;;;;;;;;;15.70;98.30;;;;;;5030148;28;20332;-80
2021/09/26 00:34:07;;;;;;;;;;;15.60;98.40;;;;;;5029791;28;19909;-80
2021/09/26 00:36:33;;;;;;;;;;;15.60;98.40;;;;;;5030597;28;20421;-80
2021/09/26 00:38:58;;;;;;;;;;;15.60;98.50;;;;;;5029891;28;20399;-80
2021/09/26 00:41:24;;;;;;;;;;;15.50;98.50;;;;;;5029873;28;19913;-80
2021/09/26 00:43:49;;;;;;;;;;;15.50;98.50;;;;;;5030297;28;19913;-80
2021/09/26 00:46:15;;;;;;;;;;;15.50;98.50;;;;;;5030421;28;19909;-80
2021/09/26 00:48:40;;;;;;;;;;;15.40;98.50;;;;;;5030031;28;19909;-80
2021/09/26 00:51:10;;;;;;;;;;;15.40;98.50;;;;;;5027412;28;19917;-80
2021/09/26 00:53:37;;;;;;;;;;;15.40;98.60;;;;;;5029805;28;19944;-80
2021/09/26 00:56:03;;;;;;;;;;;15.40;98.80;;;;;;5030197;28;19962;-80
2021/09/26 00:58:29;;;;;;;;;;;15.30;98.80;;;;;;5028641;28;19905;-80
2021/09/26 01:00:55;;;;;;;;;;;15.30;98.90;;;;;;5029104;28;19923;-80
2021/09/26 01:03:20;;;;;;;;;;;15.30;98.90;;;;;;5029367;28;20301;-80
2021/09/26 01:05:51;;;;;;;;;;;15.30;98.80;;;;;;5029701;28;19913;-80
2021/09/26 01:08:39;;;;;;;;;;;15.30;99.10;;;;;;5028971;28;20026;-80
2021/09/26 01:11:11;;;;;;;;;;;15.30;98.90;;;;;;5028774;28;19913;-80
2021/09/26 01:13:36;;;;;;;;;;;15.20;99.00;;;;;;5030082;28;19905;-80
2021/09/26 01:16:05;;;;;;;;;;;15.20;98.90;;;;;;5029979;28;19932;-80
2021/09/26 01:18:39;;;;;;;;;;;15.20;98.90;;;;;;5020019;28;20526;-80
2021/09/26 01:21:20;;;;;;;;;;;15.20;99.00;;;;;;5029324;28;19927;-80
2021/09/26 01:23:54;;;;;;;;;;;15.10;99.00;;;;;;5028773;28;20297;-80
2021/09/26 01:26:28;;;;;;;;;;;15.10;99.00;;;;;;5029297;28;19909;-80
2021/09/26 01:29:08;;;;;;;;;;;15.10;99.00;;;;;;5019909;28;20290;-80
2021/09/26 01:31:41;;;;;;;;;;;15.10;99.10;;;;;;5029149;28;19924;-80
2021/09/26 01:34:21;;;;;;;;;;;15.10;99.40;;;;;;5028096;28;19909;-80
2021/09/26 01:36:52;;;;;;;;;;;15.10;99.10;;;;;;5029138;28;19939;-80
2021/09/26 01:39:20;;;;;;;;;;;15.00;99.20;;;;;;5028291;28;19969;-80
2021/09/26 01:41:58;;;;;;;;;;;15.00;99.20;;;;;;5028690;28;20369;-80
2021/09/26 01:44:47;;;;;;;;;;;15.00;99.20;;;;;;5029277;28;19909;-80
2021/09/26 01:47:16;;;;;;;;;;;15.00;99.20;;;;;;5013501;28;19905;-80
2021/09/26 01:49:45;;;;;;;;;;;14.90;99.20;;;;;;5027520;28;19913;-80
2021/09/26 01:52:15;;;;;;;;;;;14.90;99.20;;;;;;5028412;28;19932;-80
2021/09/26 01:54:40;;;;;;;;;;;14.90;99.10;;;;;;5029197;28;19951;-80
2021/09/26 01:57:06;;;;;;;;;;;14.80;99.20;;;;;;5028900;28;19940;-81
2021/09/26 01:59:32;;;;;;;;;;;14.70;99.20;;;;;;5028565;28;19917;-80
2021/09/26 02:01:58;;;;;;;;;;;14.70;99.20;;;;;;5028015;28;19913;-80
2021/09/26 02:04:24;;;;;;;;;;;14.60;99.40;;;;;;5028683;28;19996;-80
2021/09/26 02:06:51;;;;;;;;;;;14.60;99.30;;;;;;5028731;28;19909;-80
2021/09/26 02:09:17;;;;;;;;;;;14.50;99.50;;;;;;5028261;28;19980;-80
2021/09/26 02:11:43;;;;;;;;;;;14.50;99.60;;;;;;5028164;28;20437;-80
2021/09/26 02:14:09;;;;;;;;;;;14.50;99.70;;;;;;5026842;28;19905;-80
2021/09/26 02:16:35;;;;;;;;;;;14.60;99.60;;;;;;5027060;28;19943;-80
2021/09/26 02:19:01;;;;;;;;;;;14.60;99.60;;;;;;5027908;28;20278;-80
2021/09/26 02:21:28;;;;;;;;;;;14.60;99.50;;;;;;5027907;28;19991;-80
2021/09/26 02:23:53;;;;;;;;;;;14.60;99.60;;;;;;5028134;28;19924;-80
2021/09/26 02:26:19;;;;;;;;;;;14.60;99.60;;;;;;5028469;28;19916;-80
2021/09/26 02:28:45;;;;;;;;;;;14.60;99.80;;;;;;5027911;28;20345;-80
2021/09/26 02:31:10;;;;;;;;;;;14.60;99.90;;;;;;5027645;28;20362;-80
2021/09/26 02:33:36;;;;;;;;;;;14.70;99.90;;;;;;5028192;28;19932;-80
2021/09/26 02:36:03;;;;;;;;;;;14.70;99.70;;;;;;5028408;28;19909;-80
2021/09/26 02:38:29;;;;;;;;;;;14.60;99.70;;;;;;5028152;28;19955;-80
2021/09/26 02:40:57;;;;;;;;;;;14.70;99.80;;;;;;5059553;28;19964;-80
2021/09/26 02:43:33;;;;;;;;;;;14.60;99.60;;;;;;5028023;28;19913;-80
2021/09/26 02:46:05;;;;;;;;;;;14.60;99.70;;;;;;5034890;28;19916;-80
2021/09/26 02:48:31;;;;;;;;;;;14.60;99.50;;;;;;5028129;28;20277;-80
2021/09/26 02:50:57;;;;;;;;;;;14.50;99.50;;;;;;5027183;28;19978;-79
2021/09/26 02:53:24;;;;;;;;;;;14.50;99.70;;;;;;5042969;28;19931;-81
2021/09/26 02:55:51;;;;;;;;;;;14.50;99.70;;;;;;5026994;28;19915;-80
2021/09/26 02:58:16;;;;;;;;;;;14.40;99.80;;;;;;5027912;28;19905;-80
2021/09/26 03:00:44;;;;;;;;;;;14.50;99.80;;;;;;5026828;28;20265;-80
2021/09/26 03:03:16;;;;;;;;;;;14.50;99.80;;;;;;5026842;28;19920;-80
2021/09/26 03:05:42;;;;;;;;;;;14.50;99.80;;;;;;5018120;28;19952;-80
2021/09/26 03:08:08;;;;;;;;;;;14.50;99.80;;;;;;5059095;28;19961;-79
2021/09/26 03:10:34;;;;;;;;;;;14.40;99.80;;;;;;5025504;28;20460;-80
2021/09/26 03:12:59;;;;;;;;;;;14.40;99.70;;;;;;5026905;28;20354;-80
2021/09/26 03:15:25;;;;;;;;;;;14.30;99.70;;;;;;5027584;28;19913;-80
2021/09/26 03:17:50;;;;;;;;;;;14.30;99.70;;;;;;5027053;28;19908;-80
2021/09/26 03:20:16;;;;;;;;;;;14.30;99.90;;;;;;5027721;28;19940;-80
2021/09/26 03:22:41;;;;;;;;;;;14.20;99.90;;;;;;5026334;28;19931;-80
2021/09/26 03:25:07;;;;;;;;;;;14.30;99.80;;;;;;5027890;28;19913;-80
2021/09/26 03:27:32;;;;;;;;;;;14.20;99.80;;;;;;5027238;28;19909;-80
2021/09/26 03:29:58;;;;;;;;;;;14.20;99.80;;;;;;5026786;28;20417;-80
2021/09/26 03:32:23;;;;;;;;;;;14.20;99.80;;;;;;5026814;28;20012;-80
2021/09/26 03:34:49;;;;;;;;;;;14.20;99.80;;;;;;5027520;28;20007;-80
2021/09/26 03:37:14;;;;;;;;;;;14.10;99.70;;;;;;5027427;28;20006;-80
2021/09/26 03:39:40;;;;;;;;;;;14.20;99.70;;;;;;5042059;28;19945;-80
2021/09/26 03:42:05;;;;;;;;;;;14.10;99.80;;;;;;5026828;28;20002;-78
2021/09/26 03:44:31;;;;;;;;;;;14.10;99.90;;;;;;5026698;28;19956;-80
2021/09/26 03:46:56;;;;;;;;;;;14.10;99.90;;;;;;5027760;28;20264;-80
2021/09/26 03:49:22;;;;;;;;;;;14.10;99.90;;;;;;5027675;28;19905;-80
2021/09/26 03:51:51;;;;;;;;;;;14.10;99.70;;;;;;5026767;28;19913;-80
2021/09/26 03:54:17;;;;;;;;;;;14.00;99.90;;;;;;5027255;28;19915;-80
2021/09/26 03:56:43;;;;;;;;;;;14.10;99.90;;;;;;5028167;28;19974;-80
2021/09/26 03:59:09;;;;;;;;;;;14.10;99.90;;;;;;5029641;28;19919;-80
2021/09/26 04:01:35;;;;;;;;;;;14.10;99.90;;;;;;5030133;28;20059;-80
2021/09/26 04:04:00;;;;;;;;;;;14.20;99.90;;;;;;5030711;28;20003;-80
2021/09/26 04:06:26;;;;;;;;;;;14.20;99.90;;;;;;5031081;28;19967;-81
2021/09/26 04:08:51;;;;;;;;;;;14.30;99.80;;;;;;5030299;28;19936;-80
2021/09/26 04:11:18;;;;;;;;;;;14.30;99.90;;;;;;5031433;28;20013;-80
2021/09/26 04:13:43;;;;;;;;;;;14.30;99.90;;;;;;5029913;28;19912;-81
2021/09/26 04:16:09;;;;;;;;;;;14.30;99.90;;;;;;5030554;28;19928;-81
2021/09/26 04:18:34;;;;;;;;;;;14.30;99.80;;;;;;5045619;28;19916;-81
2021/09/26 04:21:00;;;;;;;;;;;14.40;99.90;;;;;;5029926;28;20018;-81
2021/09/26 04:23:25;;;;;;;;;;;14.40;99.90;;;;;;5029953;28;20419;-81
2021/09/26 04:25:51;;;;;;;;;;;14.40;99.90;;;;;;5030591;28;19928;-80
2021/09/26 04:28:16;;;;;;;;;;;14.40;99.90;;;;;;5030541;28;19909;-81
2021/09/26 04:30:42;;;;;;;;;;;14.50;99.90;;;;;;5028394;28;19920;-80
2021/09/26 04:33:07;;;;;;;;;;;14.50;99.90;;;;;;5029201;28;20389;-81
2021/09/26 04:35:33;;;;;;;;;;;14.50;99.90;;;;;;5030325;28;19912;-81
2021/09/26 04:37:58;;;;;;;;;;;14.50;99.90;;;;;;5036214;28;19912;-81
2021/09/26 04:40:24;;;;;;;;;;;14.50;99.90;;;;;;5030021;28;19917;-81
2021/09/26 04:42:49;;;;;;;;;;;14.60;99.90;;;;;;5028993;28;19919;-80
2021/09/26 04:45:15;;;;;;;;;;;14.60;99.90;;;;;;5028386;28;19913;-81
2021/09/26 04:47:40;;;;;;;;;;;14.60;99.90;;;;;;5029855;28;19979;-81
2021/09/26 04:50:06;;;;;;;;;;;14.70;99.90;;;;;;5029829;28;19953;-81
2021/09/26 04:52:32;;;;;;;;;;;14.70;99.90;;;;;;5028707;28;20350;-81
2021/09/26 04:54:58;;;;;;;;;;;14.80;99.90;;;;;;5030095;28;19993;-81
2021/09/26 04:57:23;;;;;;;;;;;14.80;99.90;;;;;;5030010;28;19984;-81
2021/09/26 04:59:49;;;;;;;;;;;14.80;99.90;;;;;;5028312;28;20435;-81
2021/09/26 05:02:14;;;;;;;;;;;14.80;99.90;;;;;;5029151;28;19912;-81
2021/09/26 05:04:40;;;;;;;;;;;14.80;99.90;;;;;;5029455;28;19908;-80
2021/09/26 05:07:05;;;;;;;;;;;14.80;99.90;;;;;;5029947;28;19955;-80
2021/09/26 05:09:31;;;;;;;;;;;14.80;99.90;;;;;;5027618;28;19915;-80
2021/09/26 05:11:56;;;;;;;;;;;14.90;99.90;;;;;;5035531;28;19917;-80
2021/09/26 05:14:22;;;;;;;;;;;14.90;99.90;;;;;;5028189;28;20322;-80
2021/09/26 05:16:47;;;;;;;;;;;14.90;99.90;;;;;;5029514;28;19913;-80
2021/09/26 05:19:13;;;;;;;;;;;14.90;99.90;;;;;;5028839;28;20012;-81
2021/09/26 05:21:38;;;;;;;;;;;15.00;99.90;;;;;;5028755;28;19913;-80
2021/09/26 05:24:04;;;;;;;;;;;15.00;99.90;;;;;;5034898;28;19917;-80
2021/09/26 05:26:29;;;;;;;;;;;15.00;99.90;;;;;;5029343;28;19909;-80
2021/09/26 05:28:55;;;;;;;;;;;15.10;99.90;;;;;;5028361;28;19913;-80
2021/09/26 05:31:20;;;;;;;;;;;15.20;99.90;;;;;;5028482;28;19927;-79
2021/09/26 05:33:46;;;;;;;;;;;15.20;99.90;;;;;;5028843;28;19905;-80
2021/09/26 05:36:11;;;;;;;;;;;15.30;99.90;;;;;;5028884;28;19970;-80
2021/09/26 05:38:37;;;;;;;;;;;15.30;99.90;;;;;;5028522;28;19913;-80
2021/09/26 05:41:02;;;;;;;;;;;15.40;99.90;;;;;;5027579;28;19917;-79
2021/09/26 05:43:28;;;;;;;;;;;15.40;99.90;;;;;;5035793;28;19909;-80
2021/09/26 05:45:54;;;;;;;;;;;15.50;99.90;;;;;;5028281;28;19999;-80
2021/09/26 05:48:19;;;;;;;;;;;15.50;99.90;;;;;;5028953;28;20353;-81
2021/09/26 05:50:45;;;;;;;;;;;15.60;99.90;;;;;;5027943;28;20450;-80
2021/09/26 05:53:10;;;;;;;;;;;15.60;99.90;;;;;;5028112;28;20012;-80
2021/09/26 05:55:35;;;;;;;;;;;15.70;99.90;;;;;;5028322;28;19912;-80
2021/09/26 05:58:01;;;;;;;;;;;15.80;99.80;;;;;;5027719;28;19913;-80
2021/09/26 06:00:26;;;;;;;;;;;15.80;99.70;;;;;;5028256;28;19958;-80
2021/09/26 06:02:52;;;;;;;;;;;15.80;99.90;;;;;;5027863;28;20011;-80
2021/09/26 06:05:18;;;;;;;;;;;15.90;99.70;;;;;;5028732;28;20381;-80
2021/09/26 06:07:43;;;;;;;;;;;15.90;99.60;;;;;;5026735;28;20367;-80
2021/09/26 06:10:09;;;;;;;;;;;15.90;99.60;;;;;;5028351;28;20007;-80
2021/09/26 06:12:35;;;;;;;;;;;16.00;99.50;;;;;;5026924;28;19970;-80
2021/09/26 06:15:03;;;;;;;;;;;16.00;99.40;;;;;;5028217;28;19909;-80
2021/09/26 06:17:29;;;;;;;;;;;16.10;99.40;;;;;;5028106;28;19976;-79
2021/09/26 06:19:54;;;;;;;;;;;16.10;99.40;;;;;;5026128;28;19981;-80
2021/09/26 06:22:20;;;;;;;;;;;16.20;99.20;;;;;;5026959;28;19995;-80
2021/09/26 06:24:46;;;;;;;;;;;16.20;99.10;;;;;;5054592;22;19921;-71
2021/09/26 06:27:12;;;;;;;;;;;16.30;99.20;;;;;;5029008;28;19909;-71
2021/09/26 06:29:37;;;;;;;;;;;16.30;99.30;;;;;;5028509;28;19909;-72
2021/09/26 06:32:03;;;;;;;;;;;16.40;99.30;;;;;;5028859;28;20385;-73
2021/09/26 06:34:28;;;;;;;;;;;16.40;99.20;;;;;;5028576;28;19913;-73
2021/09/26 06:36:54;;;;;;;;;;;16.50;99.10;;;;;;5027462;28;19931;-73
2021/09/26 06:39:19;;;;;;;;;;;16.60;99.10;;;;;;5027991;28;20464;-73
2021/09/26 06:41:45;;;;;;;;;;;16.60;99.00;;;;;;5027803;28;20349;-73
2021/09/26 06:44:10;;;;;;;;;;;16.70;98.90;;;;;;5028943;28;19920;-73
2021/09/26 06:46:38;;;;;;;;;;;16.70;98.80;;;;;;5028836;28;19947;-72
2021/09/26 06:49:04;;;;;;;;;;;16.70;98.80;;;;;;5028766;28;20310;-73
2021/09/26 06:51:32;;;;;;;;;;;16.70;98.80;;;;;;5027032;28;19909;-72
2021/09/26 06:53:57;;;;;;;;;;;16.80;98.70;;;;;;5027442;28;19920;-72
2021/09/26 06:56:22;;;;;;;;;;;16.80;98.60;;;;;;5027979;28;19909;-72
2021/09/26 06:58:48;;;;;;;;;;;16.80;98.60;;;;;;5028209;28;19944;-72
2021/09/26 07:01:13;;;;;;;;;;;16.90;98.60;;;;;;5027932;28;20396;-72
2021/09/26 07:03:39;;;;;;;;;;;16.90;98.50;;;;;;5028421;28;20415;-72
2021/09/26 07:06:04;;;;;;;;;;;17.00;98.50;;;;;;5028064;28;19905;-72
2021/09/26 07:08:30;;;;;;;;;;;17.00;98.40;;;;;;5028050;28;20004;-72
2021/09/26 07:10:55;;;;;;;;;;;17.10;98.40;;;;;;5027689;28;19944;-73
2021/09/26 07:13:20;;;;;;;;;;;17.20;98.30;;;;;;5034073;28;20385;-73
2021/09/26 07:15:46;;;;;;;;;;;17.20;98.30;;;;;;5028149;28;19905;-73
2021/09/26 07:18:11;;;;;;;;;;;17.20;98.20;;;;;;5028073;28;19909;-73
2021/09/26 07:20:37;;;;;;;;;;;17.30;98.10;;;;;;5034294;28;20217;-73
2021/09/26 07:23:02;;;;;;;;;;;17.40;98.30;;;;;;5042532;28;19996;-73
2021/09/26 07:25:29;;;;;;;;;;;17.50;97.90;;;;;;5027746;28;19917;-73
2021/09/26 07:27:56;;;;;;;;;;;17.50;97.90;;;;;;5027968;28;19909;-73
2021/09/26 07:30:22;;;;;;;;;;;17.60;97.80;;;;;;5027884;28;19932;-73
2021/09/26 07:32:47;;;;;;;;;;;17.60;97.70;;;;;;5029450;28;20389;-73
2021/09/26 07:35:14;;;;;;;;;;;17.60;97.70;;;;;;5034987;28;19992;-73
2021/09/26 07:37:39;;;;;;;;;;;17.70;97.70;;;;;;5036354;28;19912;-72
2021/09/26 07:40:05;;;;;;;;;;;17.80;97.70;;;;;;5037502;28;19996;-72
2021/09/26 07:42:31;;;;;;;;;;;17.80;97.60;;;;;;5037574;28;20411;-72
2021/09/26 07:45:00;;;;;;;;;;;17.90;97.60;;;;;;5031552;28;19909;-73
2021/09/26 07:47:26;;;;;;;;;;;17.90;97.60;;;;;;5031879;28;19908;-73
2021/09/26 07:49:52;;;;;;;;;;;18.00;97.50;;;;;;5031134;28;19924;-73
2021/09/26 07:52:17;;;;;;;;;;;18.10;97.40;;;;;;5030781;28;20107;-73
2021/09/26 07:54:43;;;;;;;;;;;18.10;97.40;;;;;;5029447;28;19909;-73
2021/09/26 07:57:08;;;;;;;;;;;18.20;97.40;;;;;;5031586;28;20308;-73
2021/09/26 07:59:33;;;;;;;;;;;18.20;97.30;;;;;;5029801;28;19967;-73
2021/09/26 08:01:59;;;;;;;;;;;18.30;97.30;;;;;;5022241;28;19919;-72
2021/09/26 08:04:25;;;;;;;;;;;18.40;97.20;;;;;;5031293;28;20356;-72
2021/09/26 08:06:50;;;;;;;;;;;18.40;97.00;;;;;;5031096;28;19909;-73
2021/09/26 08:09:16;;;;;;;;;;;18.40;96.90;;;;;;5030552;28;19958;-73
2021/09/26 08:11:41;;;;;;;;;;;18.40;96.90;;;;;;5046002;28;19913;-73
2021/09/26 08:14:07;;;;;;;;;;;18.40;96.90;;;;;;5031492;28;19908;-72
2021/09/26 08:16:32;;;;;;;;;;;18.40;96.90;;;;;;5031156;28;19913;-73
2021/09/26 08:18:57;;;;;;;;;;;18.50;96.80;;;;;;5031062;28;19909;-73
2021/09/26 08:21:23;;;;;;;;;;;18.50;96.70;;;;;;5030380;28;19909;-73
2021/09/26 08:23:48;;;;;;;;;;;18.60;96.70;;;;;;5030036;28;19916;-73
2021/09/26 08:26:14;;;;;;;;;;;18.70;96.60;;;;;;5035934;28;20187;-72
2021/09/26 08:28:39;;;;;;;;;;;18.80;96.50;;;;;;5030732;28;19952;-73
2021/09/26 08:31:06;;;;;;;;;;;19.00;96.40;;;;;;5036830;28;20361;-73
2021/09/26 08:33:31;;;;;;;;;;;19.10;96.30;;;;;;5030523;28;19920;-73
2021/09/26 08:35:57;;;;;;;;;;;19.20;96.30;;;;;;5030893;28;20237;-73
2021/09/26 08:38:22;;;;;;;;;;;19.30;96.20;;;;;;5029916;28;20456;-73
2021/09/26 08:40:50;;;;;;;;;;;19.40;96.00;;;;;;5045288;28;19913;-73
2021/09/26 08:43:19;;;;;;;;;;;19.40;95.70;;;;;;5029862;28;20365;-73
2021/09/26 08:45:45;;;;;;;;;;;19.40;95.60;;;;;;5030210;28;19905;-73
2021/09/26 08:48:10;;;;;;;;;;;19.40;95.80;;;;;;5030710;28;20262;-73
2021/09/26 08:50:36;;;;;;;;;;;19.50;95.70;;;;;;5030311;28;19905;-73
2021/09/26 08:53:03;;;;;;;;;;;19.40;95.50;;;;;;5029344;28;19913;-73
2021/09/26 08:55:28;;;;;;;;;;;19.40;95.50;;;;;;5029931;28;19905;-73
2021/09/26 08:57:54;;;;;;;;;;;19.40;95.60;;;;;;5030646;28;19950;-73
2021/09/26 09:00:20;;;;;;;;;;;19.40;95.60;;;;;;5030061;28;20316;-73
2021/09/26 09:02:45;;;;;;;;;;;19.50;95.60;;;;;;5029135;28;19924;-73
2021/09/26 09:05:25;;;;;;;;;;;19.70;95.50;;;;;;5028540;28;19913;-73
2021/09/26 09:08:05;;;;;;;;;;;19.80;95.40;;;;;;5029079;28;19913;-73
2021/09/26 09:10:38;;;;;;;;;;;19.90;95.20;;;;;;5030576;28;19909;-73
2021/09/26 09:13:04;;;;;;;;;;;20.00;95.00;;;;;;5030155;28;20366;-73
2021/09/26 09:15:30;;;;;;;;;;;20.10;95.10;;;;;;5030636;28;20552;-73
2021/09/26 09:18:00;;;;;;;;;;;20.20;95.10;;;;;;5062229;28;19908;-73
2021/09/26 09:20:27;;;;;;;;;;;20.30;95.00;;;;;;5029221;28;19917;-73
2021/09/26 09:22:57;;;;;;;;;;;20.40;95.00;;;;;;5028828;28;19960;-73
2021/09/26 09:25:41;;;;;;;;;;;20.40;94.90;;;;;;5029547;28;20354;-73
2021/09/26 09:28:12;;;;;;;;;;;20.50;94.80;;;;;;5029859;28;19916;-73
2021/09/26 09:30:39;;;;;;;;;;;20.50;94.80;;;;;;5029569;28;19982;-73
2021/09/26 09:33:05;;;;;;;;;;;20.60;94.70;;;;;;5028953;28;19959;-73
2021/09/26 09:35:41;;;;;;;;;;;20.80;94.70;;;;;;5029368;28;19905;-73
2021/09/26 09:38:07;;;;;;;;;;;21.00;94.30;;;;;;5029817;28;19912;-73
2021/09/26 09:40:32;;;;;;;;;;;21.20;94.20;;;;;;5029446;28;19917;-73
2021/09/26 09:42:58;;;;;;;;;;;21.40;93.90;;;;;;5020206;28;20328;-73
2021/09/26 09:45:28;;;;;;;;;;;21.50;93.60;;;;;;5029581;28;20007;-73
2021/09/26 09:47:59;;;;;;;;;;;21.60;93.20;;;;;;5029099;28;19909;-73
2021/09/26 09:50:29;;;;;;;;;;;21.60;93.10;;;;;;5029465;28;20055;-73
2021/09/26 09:52:54;;;;;;;;;;;21.70;93.10;;;;;;5028330;28;19913;-73
2021/09/26 09:55:20;;;;;;;;;;;21.70;92.90;;;;;;5028995;28;19920;-73
2021/09/26 09:57:45;;;;;;;;;;;21.90;93.30;;;;;;5028586;28;19979;-73
2021/09/26 10:00:15;;;;;;;;;;;21.90;93.00;;;;;;5028778;28;20384;-73
2021/09/26 10:02:40;;;;;;;;;;;22.00;92.80;;;;;;5028102;28;19909;-73
2021/09/26 10:05:06;;;;;;;;;;;22.00;92.60;;;;;;5028433;28;20003;-73
2021/09/26 10:07:32;;;;;;;;;;;22.10;92.70;;;;;;5028842;28;19908;-73
2021/09/26 10:09:57;;;;;;;;;;;22.30;92.30;;;;;;5028779;28;19940;-73
2021/09/26 10:12:24;;;;;;;;;;;22.40;92.30;;;;;;5028566;28;19924;-73
2021/09/26 10:14:51;;;;;;;;;;;22.40;92.10;;;;;;5028621;28;19909;-73
2021/09/26 10:17:17;;;;;;;;;;;22.40;92.00;;;;;;5027222;28;19967;-73
2021/09/26 10:19:44;;;;;;;;;;;22.50;92.10;;;;;;5028443;28;19913;-73
2021/09/26 10:22:15;;;;;;;;;;;22.60;91.70;;;;;;5028065;28;20374;-73
2021/09/26 10:24:42;;;;;;;;;;;22.60;91.90;;;;;;5028622;28;19956;-73
2021/09/26 10:27:10;;;;;;;;;;;22.70;91.60;;;;;;5028764;28;20019;-73
2021/09/26 10:29:36;;;;;;;;;;;22.70;91.70;;;;;;5028349;28;19905;-73
2021/09/26 10:32:03;;;;;;;;;;;22.70;91.50;;;;;;5027576;28;19967;-73
2021/09/26 10:34:30;;;;;;;;;;;22.80;90.30;;;;;;5027721;28;20365;-73
2021/09/26 10:36:56;;;;;;;;;;;22.80;90.70;;;;;;5028450;28;19905;-73
2021/09/26 10:39:23;;;;;;;;;;;22.80;90.50;;;;;;5027320;28;20258;-73
2021/09/26 10:42:02;;;;;;;;;;;22.90;90.90;;;;;;5027834;28;19916;-73
2021/09/26 10:44:28;;;;;;;;;;;23.00;90.60;;;;;;5028732;28;19905;-73
2021/09/26 10:47:20;;;;;;;;;;;23.00;90.30;;;;;;5028358;28;19916;-73
2021/09/26 10:49:49;;;;;;;;;;;23.10;90.80;;;;;;5026417;28;21185;-73
2021/09/26 10:52:35;;;;;;;;;;;23.30;90.80;;;;;;5027716;28;20328;-73
2021/09/26 10:55:21;;;;;;;;;;;23.30;90.40;;;;;;5028567;28;19905;-73
2021/09/26 10:57:48;;;;;;;;;;;23.30;90.10;;;;;;5028587;28;19905;-73
2021/09/26 11:00:31;;;;;;;;;;;23.40;90.50;;;;;;5027418;28;19909;-73
2021/09/26 11:03:04;;;;;;;;;;;23.40;90.10;;;;;;5025456;28;19920;-73
2021/09/26 11:05:31;;;;;;;;;;;23.50;90.00;;;;;;5028612;28;19912;-73
2021/09/26 11:07:57;;;;;;;;;;;23.50;89.20;;;;;;5030357;28;19916;-73
2021/09/26 11:10:43;;;;;;;;;;;23.60;89.90;;;;;;5032117;28;19904;-73
2021/09/26 11:13:13;;;;;;;;;;;23.70;90.00;;;;;;5031473;28;20270;-73
2021/09/26 11:16:14;;;;;;;;;;;23.80;89.00;;;;;;5031787;28;20318;-73
2021/09/26 11:18:53;;;;;;;;;;;23.90;90.00;;;;;;5023968;28;19909;-73
2021/09/26 11:21:37;;;;;;;;;;;24.10;89.10;;;;;;5031917;28;20400;-73
2021/09/26 11:24:04;;;;;;;;;;;24.20;87.70;;;;;;5031893;28;19924;-73
2021/09/26 11:26:48;;;;;;;;;;;24.10;88.70;;;;;;5064279;28;19905;-73
2021/09/26 11:29:13;;;;;;;;;;;24.20;88.70;;;;;;5031613;28;19909;-73
2021/09/26 11:31:41;;;;;;;;;;;24.30;88.20;;;;;;5031963;28;19909;-73
2021/09/26 11:34:06;;;;;;;;;;;24.40;88.10;;;;;;5032155;28;19905;-73
2021/09/26 11:36:32;;;;;;;;;;;24.40;88.00;;;;;;5032120;28;19913;-73
2021/09/26 11:39:17;;;;;;;;;;;24.40;87.70;;;;;;5030161;28;20269;-72
2021/09/26 11:41:42;;;;;;;;;;;24.40;87.50;;;;;;5031401;28;19916;-72
2021/09/26 11:44:09;;;;;;;;;;;24.50;88.20;;;;;;5032038;28;19909;-72
2021/09/26 11:46:35;;;;;;;;;;;24.70;88.40;;;;;;5031708;28;19909;-73
2021/09/26 11:49:02;;;;;;;;;;;24.70;88.00;;;;;;5031449;28;19970;-73
2021/09/26 11:51:28;;;;;;;;;;;24.70;87.40;;;;;;5030920;28;19909;-73
2021/09/26 11:53:53;;;;;;;;;;;24.80;87.50;;;;;;5031321;28;19959;-73
2021/09/26 11:56:24;;;;;;;;;;;24.80;86.60;;;;;;5030461;28;19913;-71
2021/09/26 11:58:54;;;;;;;;;;;24.70;87.20;;;;;;5031334;28;20011;-73
2021/09/26 12:01:29;;;;;;;;;;;24.70;87.40;;;;;;5030640;28;20365;-73
2021/09/26 12:04:08;;;;;;;;;;;24.70;87.50;;;;;;5031201;28;19925;-73
2021/09/26 12:06:34;;;;;;;;;;;24.70;86.80;;;;;;5031471;28;19909;-74
2021/09/26 12:09:00;;;;;;;;;;;24.80;87.20;;;;;;5030796;28;19975;-74
2021/09/26 12:11:25;;;;;;;;;;;24.80;87.10;;;;;;5031282;28;19940;-73
2021/09/26 12:13:52;;;;;;;;;;;24.90;87.40;;;;;;5031036;28;19921;-73
2021/09/26 12:16:19;;;;;;;;;;;25.00;87.50;;;;;;5030190;28;20369;-73
2021/09/26 12:18:59;;;;;;;;;;;25.00;87.00;;;;;;5030260;28;19912;-73
2021/09/26 12:21:29;;;;;;;;;;;25.20;86.50;;;;;;5030653;28;19966;-74
2021/09/26 12:24:00;;;;;;;;;;;25.30;85.30;;;;;;5064932;22;20260;-71
2021/09/26 12:26:28;;;;;;;;;;;25.20;85.50;;;;;;5045702;28;19920;-70
2021/09/26 12:29:03;;;;;;;;;;;25.20;85.10;;;;;;5028550;28;19967;-71
2021/09/26 12:31:29;;;;;;;;;;;25.20;85.70;;;;;;5029865;28;19967;-71
2021/09/26 12:33:54;;;;;;;;;;;25.30;85.00;;;;;;5030133;28;20369;-71
2021/09/26 12:36:21;;;;;;;;;;;25.50;84.50;;;;;;5062658;28;19909;-71
2021/09/26 12:38:47;;;;;;;;;;;25.50;84.70;;;;;;5020624;28;20142;-71
2021/09/26 12:41:21;;;;;;;;;;;25.60;83.70;;;;;;5030014;28;19952;-71
2021/09/26 12:43:55;;;;;;;;;;;25.60;83.30;;;;;;5029233;28;19909;-71
2021/09/26 12:46:25;;;;;;;;;;;25.70;83.30;;;;;;5031236;28;19909;-71
2021/09/26 12:48:51;;;;;;;;;;;25.70;83.20;;;;;;5029903;28;19935;-71
2021/09/26 12:51:25;;;;;;;;;;;25.70;82.80;;;;;;5029781;28;19905;-71
2021/09/26 12:53:51;;;;;;;;;;;25.80;82.50;;;;;;5029234;28;19971;-71
2021/09/26 12:56:18;;;;;;;;;;;25.80;82.90;;;;;;5030205;28;20373;-71
2021/09/26 12:58:45;;;;;;;;;;;25.80;82.50;;;;;;5029171;28;19909;-71
2021/09/26 13:01:13;;;;;;;;;;;25.80;82.20;;;;;;5029795;28;19913;-71
2021/09/26 13:04:05;;;;;;;;;;;25.80;81.80;;;;;;5028848;28;20373;-71
2021/09/26 13:06:31;;;;;;;;;;;25.70;81.60;;;;;;5028742;28;19959;-71
2021/09/26 13:08:57;;;;;;;;;;;25.80;82.40;;;;;;5028734;28;20318;-71
2021/09/26 13:11:26;;;;;;;;;;;25.80;82.10;;;;;;5029251;28;19956;-71
2021/09/26 13:14:00;;;;;;;;;;;25.80;82.40;;;;;;5028698;28;19912;-71
2021/09/26 13:16:27;;;;;;;;;;;25.90;81.40;;;;;;5029678;28;19909;-71
2021/09/26 13:18:54;;;;;;;;;;;25.90;81.60;;;;;;5029230;28;19960;-71
2021/09/26 13:21:22;;;;;;;;;;;25.80;80.30;;;;;;5028705;28;20417;-71
2021/09/26 13:23:58;;;;;;;;;;;25.80;81.00;;;;;;5028620;28;19927;-71
2021/09/26 13:26:23;;;;;;;;;;;25.80;81.10;;;;;;5029400;28;20393;-71
2021/09/26 13:28:50;;;;;;;;;;;25.90;80.60;;;;;;5027750;28;19932;-71
2021/09/26 13:31:21;;;;;;;;;;;25.90;80.00;;;;;;5028593;28;19971;-71
2021/09/26 13:33:53;;;;;;;;;;;25.90;79.60;;;;;;5028860;28;19905;-71
2021/09/26 13:36:35;;;;;;;;;;;25.90;80.30;;;;;;5031688;28;19919;-71
2021/09/26 13:39:05;;;;;;;;;;;26.00;78.70;;;;;;5028818;28;19905;-71
2021/09/26 13:41:33;;;;;;;;;;;26.00;79.10;;;;;;5028053;28;19921;-71
2021/09/26 13:44:01;;;;;;;;;;;26.00;76.90;;;;;;5031523;28;19920;-71
2021/09/26 13:46:27;;;;;;;;;;;26.00;78.10;;;;;;5038178;28;19913;-71
2021/09/26 13:48:53;;;;;;;;;;;26.00;77.80;;;;;;5028345;28;19908;-71
2021/09/26 13:51:18;;;;;;;;;;;26.00;78.80;;;;;;5031145;28;19933;-71
2021/09/26 13:53:44;;;;;;;;;;;26.10;79.30;;;;;;5028224;28;20416;-71
2021/09/26 13:56:09;;;;;;;;;;;26.00;79.20;;;;;;5028860;28;19923;-71
2021/09/26 13:58:35;;;;;;;;;;;26.00;79.20;;;;;;5028467;28;19905;-71
2021/09/26 14:01:02;;;;;;;;;;;25.90;79.60;;;;;;5027542;28;19923;-71
2021/09/26 14:03:28;;;;;;;;;;;26.00;79.30;;;;;;5028228;28;20361;-71
2021/09/26 14:05:53;;;;;;;;;;;25.90;79.00;;;;;;5028556;28;19915;-71
2021/09/26 14:08:18;;;;;;;;;;;25.90;79.50;;;;;;5027662;28;20008;-71
2021/09/26 14:10:47;;;;;;;;;;;25.90;79.30;;;;;;5027565;28;20016;-71
2021/09/26 14:13:13;;;;;;;;;;;25.90;79.20;;;;;;5028584;28;19915;-71
2021/09/26 14:15:38;;;;;;;;;;;25.90;79.80;;;;;;5026980;28;19909;-72
2021/09/26 14:18:04;;;;;;;;;;;25.90;79.40;;;;;;5026924;28;19909;-71